Time;durP1;ratioP1;P1;durP2;ratioP2;P2;SDS_P1;SDS_P2;PMS_P1;PMS_P2;Temp;Humidity;BMP_temperature;BMP_pressure;BME280_temperature;BME280_humidity;BME280_pressure;Samples;Min_cycle;Max_cycle;Signal;HPM_P1;HPM_P2
2023/02/17 00:00:31;;;;;;;23.03;16.27;;;8.30;1.00;;;;;;5044746;28;20194;-58
2023/02/17 00:02:58;;;;;;;25.57;16.67;;;8.40;1.00;;;;;;5045409;28;20653;-58
2023/02/17 00:05:25;;;;;;;28.70;19.40;;;8.50;1.00;;;;;;5042233;28;20220;-58
2023/02/17 00:07:51;;;;;;;26.30;17.67;;;8.50;1.00;;;;;;5043235;28;20456;-58
2023/02/17 00:10:17;;;;;;;26.03;16.93;;;8.60;1.00;;;;;;5061265;28;20774;-58
2023/02/17 00:12:43;;;;;;;24.00;15.63;;;8.60;1.00;;;;;;5055537;28;20210;-61
2023/02/17 00:15:09;;;;;;;22.60;14.93;;;8.70;1.00;;;;;;5056610;28;20583;-58
2023/02/17 00:17:34;;;;;;;21.20;16.20;;;8.70;1.00;;;;;;5051740;28;20192;-59
2023/02/17 00:20:00;;;;;;;22.60;16.30;;;8.80;1.00;;;;;;5062999;28;20245;-57
2023/02/17 00:22:26;;;;;;;23.10;14.20;;;8.80;1.00;;;;;;5054728;28;20480;-58
2023/02/17 00:24:51;;;;;;;24.90;15.77;;;8.90;1.00;;;;;;5042515;28;20188;-59
2023/02/17 00:27:18;;;;;;;16.50;13.10;;;8.90;1.00;;;;;;5049359;28;20692;-59
2023/02/17 00:29:44;;;;;;;17.07;13.10;;;8.90;1.00;;;;;;5055261;28;20189;-57
2023/02/17 00:32:10;;;;;;;20.53;15.43;;;9.10;1.00;;;;;;5049989;28;20490;-58
2023/02/17 00:34:36;;;;;;;18.33;14.20;;;9.10;1.00;;;;;;5082408;28;20475;-58
2023/02/17 00:37:02;;;;;;;20.23;14.60;;;9.10;1.00;;;;;;5053739;28;20963;-57
2023/02/17 00:39:28;;;;;;;18.57;13.00;;;9.10;1.00;;;;;;5059609;28;20449;-58
2023/02/17 00:41:53;;;;;;;18.27;12.97;;;9.20;1.00;;;;;;5052312;28;20487;-56
2023/02/17 00:44:22;;;;;;;16.93;12.17;;;9.30;1.00;;;;;;5056825;28;20819;-58
2023/02/17 00:46:48;;;;;;;17.93;13.43;;;9.20;1.00;;;;;;5045330;28;20646;-57
2023/02/17 00:49:23;;;;;;;18.90;14.07;;;9.20;1.00;;;;;;5048543;28;20544;-59
2023/02/17 00:51:49;;;;;;;16.93;13.17;;;9.20;1.00;;;;;;5052855;28;20452;-57
2023/02/17 00:54:16;;;;;;;15.97;13.37;;;9.30;1.00;;;;;;5053838;28;20583;-57
2023/02/17 00:56:42;;;;;;;16.60;13.37;;;9.20;1.00;;;;;;5048938;28;20454;-58
2023/02/17 00:59:08;;;;;;;20.20;13.77;;;9.20;1.00;;;;;;5045443;28;20455;-57
2023/02/17 01:01:35;;;;;;;16.43;13.63;;;9.20;1.00;;;;;;5061425;28;20443;-59
2023/02/17 01:04:01;;;;;;;15.97;12.77;;;9.30;1.00;;;;;;5042883;28;20452;-57
2023/02/17 01:06:31;;;;;;;16.30;13.20;;;9.30;1.00;;;;;;5056643;28;20454;-58
2023/02/17 01:08:57;;;;;;;19.30;13.73;;;9.40;1.00;;;;;;5053441;28;20459;-57
2023/02/17 01:11:26;;;;;;;15.80;12.37;;;9.40;1.00;;;;;;5042579;28;20454;-57
2023/02/17 01:13:52;;;;;;;17.50;11.90;;;9.60;1.00;;;;;;5055323;28;20231;-57
2023/02/17 01:16:24;;;;;;;21.63;13.30;;;9.60;1.00;;;;;;5050382;28;21893;-58
2023/02/17 01:18:50;;;;;;;19.97;12.70;;;9.60;1.00;;;;;;5043038;28;20545;-58
2023/02/17 01:21:24;;;;;;;15.73;12.03;;;9.80;1.00;;;;;;5056007;28;20907;-56
2023/02/17 01:23:52;;;;;;;15.50;12.30;;;9.80;1.00;;;;;;5055447;28;20502;-58
2023/02/17 01:26:20;;;;;;;14.90;12.67;;;9.80;1.00;;;;;;5051260;28;20449;-58
2023/02/17 01:28:46;;;;;;;18.60;12.57;;;9.80;1.00;;;;;;5060395;28;20597;-57
2023/02/17 01:31:12;;;;;;;16.50;13.80;;;9.70;1.00;;;;;;5052475;28;20533;-56
2023/02/17 01:33:39;;;;;;;18.87;14.57;;;9.60;1.00;;;;;;5057186;28;20462;-58
2023/02/17 01:36:06;;;;;;;16.97;12.73;;;9.60;1.00;;;;;;5033700;28;20568;-56
2023/02/17 01:38:32;;;;;;;17.20;13.23;;;9.50;1.00;;;;;;5049502;28;20451;-58
2023/02/17 01:40:58;;;;;;;15.50;12.83;;;9.50;1.00;;;;;;5056214;28;20525;-58
2023/02/17 01:43:24;;;;;;;15.43;12.40;;;9.40;1.00;;;;;;5043693;28;20453;-57
2023/02/17 01:45:53;;;;;;;15.83;11.73;;;9.40;1.00;;;;;;5048199;28;20450;-56
2023/02/17 01:48:42;;;;;;;16.53;14.07;;;9.30;1.00;;;;;;5045711;28;20458;-56
2023/02/17 01:51:13;;;;;;;20.53;14.50;;;9.30;1.00;;;;;;5051363;28;20442;-57
2023/02/17 01:53:46;;;;;;;17.80;12.57;;;9.30;1.00;;;;;;5046726;28;20449;-55
2023/02/17 01:56:14;;;;;;;20.57;14.27;;;9.40;1.00;;;;;;5043128;28;20497;-57
2023/02/17 01:58:44;;;;;;;21.50;14.00;;;9.50;1.00;;;;;;5040763;28;20414;-58
2023/02/17 02:01:10;;;;;;;20.00;13.53;;;9.40;1.00;;;;;;5042595;28;20455;-57
2023/02/17 02:03:37;;;;;;;16.53;12.97;;;9.40;1.00;;;;;;5040432;28;20658;-57
2023/02/17 02:06:09;;;;;;;17.20;13.53;;;9.30;1.00;;;;;;5040969;28;20197;-57
2023/02/17 02:08:47;;;;;;;21.03;15.33;;;9.30;1.00;;;;;;5043488;28;20447;-57
2023/02/17 02:11:13;;;;;;;22.13;14.73;;;9.20;1.00;;;;;;5044054;28;20447;-56
2023/02/17 02:13:38;;;;;;;19.97;13.80;;;9.20;1.00;;;;;;5039739;28;20533;-58
2023/02/17 02:16:20;;;;;;;17.50;13.90;;;9.30;1.00;;;;;;5038342;28;20795;-56
2023/02/17 02:18:59;;;;;;;21.73;14.77;;;9.20;1.00;;;;;;5047663;28;20188;-57
2023/02/17 02:21:27;;;;;;;22.30;15.20;;;9.20;1.00;;;;;;5055460;28;20467;-57
2023/02/17 02:24:31;;;;;;;23.43;15.43;;;9.20;1.00;;;;;;5046487;28;20473;-57
2023/02/17 02:27:18;;;;;;;22.13;16.30;;;9.20;1.00;;;;;;5052269;28;20448;-56
2023/02/17 02:29:55;;;;;;;21.90;15.43;;;9.20;1.00;;;;;;5051964;28;20505;-58
2023/02/17 02:32:29;;;;;;;21.57;16.20;;;9.30;1.00;;;;;;5048617;28;20508;-58
2023/02/17 02:35:13;;;;;;;21.97;15.07;;;9.40;1.00;;;;;;5051420;28;20437;-57
2023/02/17 02:37:41;;;;;;;20.07;14.53;;;9.30;1.00;;;;;;5055485;28;20934;-58
2023/02/17 02:40:09;;;;;;;22.17;15.17;;;9.30;1.00;;;;;;5046871;28;20438;-57
2023/02/17 02:42:35;;;;;;;23.13;15.50;;;9.20;1.00;;;;;;5055681;28;20983;-57
2023/02/17 02:45:04;;;;;;;26.80;16.30;;;9.30;1.00;;;;;;5051561;28;20428;-58
2023/02/17 02:47:51;;;;;;;19.80;15.37;;;9.20;1.00;;;;;;5053531;28;20435;-59
2023/02/17 02:50:38;;;;;;;24.63;16.43;;;9.20;1.00;;;;;;5054987;28;20959;-58
2023/02/17 02:53:45;;;;;;;22.80;15.30;;;9.10;1.00;;;;;;5052592;28;20458;-57
2023/02/17 02:56:30;;;;;;;17.10;12.43;;;9.10;1.00;;;;;;5053690;28;20576;-59
2023/02/17 02:59:29;;;;;;;13.13;8.73;;;9.30;1.00;;;;;;5049172;28;20992;-57
2023/02/17 03:02:20;;;;;;;10.07;8.43;;;10.10;1.00;;;;;;5054215;28;20438;-57
2023/02/17 03:05:09;;;;;;;13.17;9.70;;;10.40;1.00;;;;;;5041829;28;20475;-58
2023/02/17 03:08:03;;;;;;;11.63;8.50;;;10.60;1.00;;;;;;5057334;28;20934;-58
2023/02/17 03:10:29;;;;;;;14.17;8.50;;;10.90;1.00;;;;;;5046640;28;20447;-59
2023/02/17 03:12:56;;;;;;;11.50;9.57;;;11.10;1.00;;;;;;5053696;28;20469;-56
2023/02/17 03:15:29;;;;;;;11.80;10.10;;;11.10;1.00;;;;;;5056745;28;20445;-57
2023/02/17 03:17:59;;;;;;;11.83;9.27;;;11.10;1.00;;;;;;5055298;28;20521;-58
2023/02/17 03:20:34;;;;;;;15.63;10.47;;;11.00;1.00;;;;;;5053378;28;20445;-58
2023/02/17 03:23:00;;;;;;;14.50;9.60;;;11.00;1.00;;;;;;5057703;28;20447;-57
2023/02/17 03:25:25;;;;;;;13.10;9.00;;;11.00;1.00;;;;;;5064589;28;20966;-58
2023/02/17 03:27:51;;;;;;;13.43;9.07;;;11.10;1.00;;;;;;5053619;28;20238;-58
2023/02/17 03:30:17;;;;;;;13.83;9.17;;;11.20;1.00;;;;;;5048694;28;20276;-58
2023/02/17 03:32:43;;;;;;;12.33;10.07;;;11.10;1.00;;;;;;5058171;28;20222;-58
2023/02/17 03:35:09;;;;;;;14.43;9.60;;;11.20;1.00;;;;;;5061491;28;20199;-57
2023/02/17 03:37:34;;;;;;;11.90;9.10;;;11.20;1.00;;;;;;5056998;28;20922;-56
2023/02/17 03:40:00;;;;;;;14.77;9.20;;;11.20;1.00;;;;;;5051397;28;20492;-57
2023/02/17 03:42:26;;;;;;;14.93;9.30;;;11.20;1.00;;;;;;5056999;28;20259;-58
2023/02/17 03:44:51;;;;;;;12.80;10.33;;;11.20;1.00;;;;;;5055450;28;20261;-57
2023/02/17 03:47:17;;;;;;;11.17;8.63;;;11.20;1.00;;;;;;5045742;28;20646;-57
2023/02/17 03:49:43;;;;;;;11.33;8.40;;;11.20;1.00;;;;;;5046496;28;20203;-57
2023/02/17 03:52:09;;;;;;;12.23;8.37;;;11.30;1.00;;;;;;5051175;28;20191;-58
2023/02/17 03:54:34;;;;;;;10.90;9.27;;;11.30;1.00;;;;;;5045310;28;20230;-57
2023/02/17 03:57:00;;;;;;;12.00;8.70;;;11.20;1.00;;;;;;5043845;28;20453;-57
2023/02/17 03:59:26;;;;;;;13.23;9.47;;;11.20;1.00;;;;;;5045521;28;20306;-57
2023/02/17 04:01:52;;;;;;;10.93;8.10;;;11.30;1.00;;;;;;5043689;28;20263;-58
2023/02/17 04:04:18;;;;;;;10.13;7.80;;;11.10;1.00;;;;;;5042624;28;20436;-59
2023/02/17 04:06:43;;;;;;;12.77;9.70;;;11.10;1.00;;;;;;5042427;28;20189;-59
2023/02/17 04:09:09;;;;;;;10.43;8.70;;;11.00;1.00;;;;;;5043943;28;20188;-57
2023/02/17 04:11:34;;;;;;;9.47;8.23;;;11.20;1.00;;;;;;5053849;28;20200;-58
2023/02/17 04:14:00;;;;;;;11.80;9.17;;;11.30;1.00;;;;;;5053887;28;20258;-58
2023/02/17 04:16:26;;;;;;;11.67;8.53;;;11.10;1.00;;;;;;5055647;28;20234;-56
2023/02/17 04:18:51;;;;;;;12.30;9.20;;;11.00;1.00;;;;;;5060123;28;20188;-56
2023/02/17 04:21:17;;;;;;;11.63;9.00;;;10.90;1.00;;;;;;5048144;28;20191;-57
2023/02/17 04:23:43;;;;;;;13.10;10.37;;;10.90;1.00;;;;;;5059409;28;20553;-58
2023/02/17 04:26:09;;;;;;;11.93;10.10;;;10.90;1.00;;;;;;5058778;28;20330;-57
2023/02/17 04:28:40;;;;;;;15.33;9.80;;;10.70;1.00;;;;;;5049204;28;20872;-58
2023/02/17 04:31:05;;;;;;;14.63;10.37;;;10.70;1.00;;;;;;5051232;28;20195;-58
2023/02/17 04:33:31;;;;;;;12.30;9.60;;;10.60;1.00;;;;;;5049006;28;20472;-57
2023/02/17 04:35:58;;;;;;;12.90;9.40;;;10.60;1.00;;;;;;5065696;28;20192;-57
2023/02/17 04:38:33;;;;;;;15.03;10.30;;;10.50;1.00;;;;;;5064596;28;20198;-59
2023/02/17 04:41:00;;;;;;;13.43;10.70;;;10.60;1.00;;;;;;5052784;28;20503;-59
2023/02/17 04:43:27;;;;;;;10.70;9.07;;;10.70;1.00;;;;;;5062228;28;20457;-59
2023/02/17 04:45:53;;;;;;;13.60;10.50;;;10.70;1.00;;;;;;5052169;28;20839;-57
2023/02/17 04:48:19;;;;;;;12.93;11.40;;;10.70;1.00;;;;;;5056194;28;20815;-58
2023/02/17 04:50:45;;;;;;;13.07;10.43;;;10.80;1.00;;;;;;5051816;28;20451;-57
2023/02/17 04:53:12;;;;;;;11.10;10.00;;;10.90;1.00;;;;;;5052082;28;20538;-58
2023/02/17 04:55:38;;;;;;;12.63;10.30;;;10.80;1.00;;;;;;5046380;28;20479;-57
2023/02/17 04:58:04;;;;;;;13.93;10.50;;;10.80;1.00;;;;;;5060982;28;20580;-56
2023/02/17 05:00:30;;;;;;;16.57;10.70;;;10.80;1.00;;;;;;5051699;28;20593;-58
2023/02/17 05:02:55;;;;;;;14.33;10.73;;;10.70;1.00;;;;;;5052367;28;20764;-58
2023/02/17 05:05:21;;;;;;;13.80;10.30;;;10.80;1.00;;;;;;5055698;28;20459;-57
2023/02/17 05:07:47;;;;;;;16.17;10.67;;;10.80;1.00;;;;;;5057432;28;20192;-57
2023/02/17 05:10:14;;;;;;;13.33;10.03;;;10.80;1.00;;;;;;5059320;28;20653;-57
2023/02/17 05:12:40;;;;;;;12.00;10.00;;;10.80;1.00;;;;;;5062475;28;20261;-57
2023/02/17 05:15:06;;;;;;;12.60;10.37;;;10.80;1.00;;;;;;5055129;28;21171;-57
2023/02/17 05:17:32;;;;;;;13.23;9.60;;;10.90;1.00;;;;;;5052214;28;20192;-56
2023/02/17 05:19:58;;;;;;;12.30;10.07;;;10.90;1.00;;;;;;5049135;28;20446;-55
2023/02/17 05:22:24;;;;;;;14.70;10.53;;;10.90;1.00;;;;;;5056655;28;20188;-57
2023/02/17 05:24:49;;;;;;;11.73;10.00;;;11.00;1.00;;;;;;5057430;28;20195;-60
2023/02/17 05:27:15;;;;;;;13.70;9.83;;;10.90;1.00;;;;;;5049990;28;20642;-56
2023/02/17 05:29:41;;;;;;;12.13;9.80;;;10.90;1.00;;;;;;5061641;28;20586;-55
2023/02/17 05:32:06;;;;;;;15.13;11.33;;;11.00;1.00;;;;;;5058363;28;20184;-57
2023/02/17 05:34:32;;;;;;;12.60;9.60;;;10.90;1.00;;;;;;5053336;28;20180;-57
2023/02/17 05:36:57;;;;;;;11.80;10.13;;;11.00;1.00;;;;;;5059055;28;20214;-56
2023/02/17 05:39:23;;;;;;;12.87;10.30;;;11.00;1.00;;;;;;5049665;28;20650;-57
2023/02/17 05:41:49;;;;;;;14.93;10.90;;;11.00;1.00;;;;;;5057058;28;20200;-56
2023/02/17 05:44:14;;;;;;;11.10;9.70;;;11.00;1.00;;;;;;5058311;28;20196;-56
2023/02/17 05:46:40;;;;;;;13.13;9.90;;;11.00;1.00;;;;;;5057357;28;20183;-56
2023/02/17 05:49:06;;;;;;;11.27;9.97;;;11.00;1.00;;;;;;5054591;28;20285;-56
2023/02/17 05:51:31;;;;;;;10.47;8.63;;;11.00;1.00;;;;;;5062483;28;20203;-57
2023/02/17 05:53:57;;;;;;;11.60;9.20;;;11.00;1.00;;;;;;5063680;28;20224;-56
2023/02/17 05:56:23;;;;;;;12.10;9.50;;;11.00;1.00;;;;;;5059188;28;20203;-55
2023/02/17 05:58:48;;;;;;;11.90;9.73;;;11.00;1.00;;;;;;5065610;28;20192;-57
2023/02/17 06:01:14;;;;;;;11.67;8.90;;;11.10;1.00;;;;;;5055550;28;20191;-56
2023/02/17 06:03:39;;;;;;;12.10;9.10;;;11.10;1.00;;;;;;5054519;28;20196;-56
2023/02/17 06:06:06;;;;;;;10.93;9.50;;;11.10;1.00;;;;;;5054103;28;20664;-57
2023/02/17 06:08:32;;;;;;;9.13;8.23;;;11.10;1.00;;;;;;5054155;28;20658;-56
2023/02/17 06:10:57;;;;;;;10.60;9.60;;;11.10;1.00;;;;;;5053217;28;20432;-58
2023/02/17 06:13:23;;;;;;;13.43;9.47;;;11.10;1.00;;;;;;5044729;28;20470;-57
2023/02/17 06:15:48;;;;;;;10.27;9.03;;;11.10;1.00;;;;;;5040976;28;20290;-56
2023/02/17 06:18:14;;;;;;;9.40;8.50;;;11.10;1.00;;;;;;5044813;28;20196;-58
2023/02/17 06:20:40;;;;;;;11.50;8.53;;;11.20;1.00;;;;;;5046108;28;20192;-57
2023/02/17 06:23:05;;;;;;;9.97;8.03;;;11.20;1.00;;;;;;5047467;28;20204;-57
2023/02/17 06:25:31;;;;;;;9.80;7.80;;;11.10;1.00;;;;;;5046178;28;20193;-57
2023/02/17 06:27:57;;;;;;;12.47;8.83;;;11.10;1.00;;;;;;5043969;28;20547;-57
2023/02/17 06:30:23;;;;;;;9.40;7.83;;;11.20;1.00;;;;;;5044325;28;20197;-58
2023/02/17 06:32:50;;;;;;;8.50;7.60;;;11.20;1.00;;;;;;5045291;28;20702;-57
2023/02/17 06:35:16;;;;;;;12.10;9.10;;;11.30;1.00;;;;;;5046811;28;20434;-58
2023/02/17 06:37:42;;;;;;;9.10;7.90;;;11.10;1.00;;;;;;5047827;28;20532;-57
2023/02/17 06:40:08;;;;;;;11.13;8.37;;;11.20;1.00;;;;;;5047242;28;20192;-59
2023/02/17 06:42:34;;;;;;;8.43;7.53;;;11.20;1.00;;;;;;5046164;28;20450;-57
2023/02/17 06:45:02;;;;;;;10.33;7.73;;;11.20;1.00;;;;;;5045266;28;20949;-58
2023/02/17 06:47:27;;;;;;;9.63;8.23;;;11.30;1.00;;;;;;5051303;28;20201;-58
2023/02/17 06:49:53;;;;;;;9.80;8.80;;;11.30;1.00;;;;;;5044281;28;20462;-57
2023/02/17 06:52:19;;;;;;;10.57;8.77;;;11.20;1.00;;;;;;5045154;28;20560;-56
2023/02/17 06:54:46;;;;;;;9.40;8.50;;;11.30;1.00;;;;;;5055880;28;20227;-57
2023/02/17 06:57:11;;;;;;;9.00;6.90;;;11.30;1.00;;;;;;5047401;28;20180;-57
2023/02/17 06:59:37;;;;;;;8.63;7.73;;;11.30;1.00;;;;;;5045101;28;20508;-57
2023/02/17 07:02:03;;;;;;;12.23;8.13;;;11.40;1.00;;;;;;5045817;28;20184;-58
2023/02/17 07:04:28;;;;;;;9.70;8.40;;;11.40;1.00;;;;;;5048589;28;20189;-57
2023/02/17 07:06:54;;;;;;;8.73;7.83;;;11.40;1.00;;;;;;5048124;28;20376;-58
2023/02/17 07:09:20;;;;;;;9.30;8.40;;;11.50;1.00;;;;;;5046072;28;20230;-57
2023/02/17 07:11:45;;;;;;;9.37;7.37;;;11.50;1.00;;;;;;5043929;28;20596;-57
2023/02/17 07:14:11;;;;;;;9.63;8.63;;;11.40;1.00;;;;;;5046631;28;20216;-57
2023/02/17 07:16:38;;;;;;;9.43;7.50;;;11.40;1.00;;;;;;5046657;28;20188;-56
2023/02/17 07:19:03;;;;;;;8.60;7.70;;;11.40;1.00;;;;;;5046466;28;20638;-57
2023/02/17 07:21:29;;;;;;;8.83;7.47;;;11.40;1.00;;;;;;5044091;28;20458;-57
2023/02/17 07:23:55;;;;;;;9.40;8.07;;;11.40;1.00;;;;;;5038205;28;20317;-57
2023/02/17 07:26:20;;;;;;;9.17;8.20;;;11.50;1.00;;;;;;5046444;28;20204;-57
2023/02/17 07:28:46;;;;;;;9.70;8.60;;;11.50;1.00;;;;;;5049093;28;20218;-57
2023/02/17 07:31:15;;;;;;;8.83;7.87;;;11.40;1.00;;;;;;5046588;28;20616;-58
2023/02/17 07:33:41;;;;;;;8.57;7.23;;;11.30;1.00;;;;;;5044321;28;20292;-57
2023/02/17 07:36:10;;;;;;;8.97;8.03;;;11.30;1.00;;;;;;5046581;28;20424;-57
2023/02/17 07:38:37;;;;;;;8.40;7.50;;;11.40;1.00;;;;;;5047576;28;20447;-58
2023/02/17 07:41:07;;;;;;;10.27;7.47;;;11.50;1.00;;;;;;5045155;28;20451;-57
2023/02/17 07:43:33;;;;;;;10.10;9.10;;;11.50;1.00;;;;;;5046945;28;20509;-56
2023/02/17 07:45:59;;;;;;;9.17;8.27;;;11.70;1.00;;;;;;5045570;28;20947;-57
2023/02/17 07:48:24;;;;;;;9.33;7.23;;;11.70;1.00;;;;;;5046513;28;20262;-57
2023/02/17 07:50:50;;;;;;;8.57;7.27;;;11.70;1.00;;;;;;5046948;28;20197;-57
2023/02/17 07:53:16;;;;;;;13.80;11.63;;;11.60;1.00;;;;;;5047379;28;20748;-57
2023/02/17 07:55:41;;;;;;;8.90;7.93;;;11.60;1.00;;;;;;5051142;28;20228;-56
2023/02/17 07:58:07;;;;;;;8.50;7.53;;;11.70;1.00;;;;;;5049093;28;20195;-58
2023/02/17 08:00:32;;;;;;;8.23;7.33;;;11.80;1.00;;;;;;5049253;28;20244;-58
2023/02/17 08:02:58;;;;;;;7.97;7.20;;;11.80;1.00;;;;;;5049736;28;20252;-58
2023/02/17 08:05:24;;;;;;;9.73;7.83;;;11.80;1.00;;;;;;5049377;28;20196;-58
2023/02/17 08:13:17;;;;;;;9.53;8.10;;;11.90;1.00;;;;;;5049045;28;20532;-57
2023/02/17 08:13:25;;;;;;;9.33;8.20;;;11.90;1.00;;;;;;5054971;28;20561;-56
2023/02/17 08:15:50;;;;;;;10.60;7.50;;;11.80;1.00;;;;;;5048335;28;20421;-58
2023/02/17 08:18:16;;;;;;;11.00;7.73;;;11.80;1.00;;;;;;5051325;28;20850;-58
2023/02/17 08:20:41;;;;;;;8.07;7.20;;;11.80;1.00;;;;;;5051303;28;20192;-58
2023/02/17 08:23:08;;;;;;;9.07;7.60;;;11.70;1.00;;;;;;5049331;28;20193;-57
2023/02/17 08:25:34;;;;;;;9.07;7.37;;;11.70;1.00;;;;;;5049936;28;20211;-57
2023/02/17 08:28:01;;;;;;;9.17;8.27;;;11.80;1.00;;;;;;5049704;28;20422;-57
2023/02/17 08:30:27;;;;;;;9.53;7.73;;;11.90;1.00;;;;;;5051282;28;20831;-58
2023/02/17 08:32:52;;;;;;;10.40;9.03;;;11.90;1.00;;;;;;5053910;28;20553;-58
2023/02/17 08:35:21;;;;;;;10.13;9.07;;;11.80;1.00;;;;;;5053098;28;20961;-59
2023/02/17 08:37:47;;;;;;;10.40;9.40;;;11.80;1.00;;;;;;5050873;28;20618;-58
2023/02/17 08:40:13;;;;;;;10.37;7.93;;;11.80;1.00;;;;;;5050282;28;20447;-59
2023/02/17 08:42:39;;;;;;;9.67;8.67;;;11.70;1.00;;;;;;5050051;28;20438;-59
2023/02/17 08:45:05;;;;;;;9.87;8.87;;;10.50;1.00;;;;;;5050253;28;20767;-59
2023/02/17 08:47:31;;;;;;;8.63;7.73;;;11.80;1.00;;;;;;5050937;28;20176;-58
2023/02/17 08:49:56;;;;;;;9.57;7.53;;;11.90;1.00;;;;;;5050959;28;20446;-57
2023/02/17 08:52:22;;;;;;;8.70;7.90;;;11.90;1.00;;;;;;5051166;28;20495;-57
2023/02/17 08:54:47;;;;;;;9.17;8.27;;;11.80;1.00;;;;;;5044808;28;20244;-57
2023/02/17 08:57:13;;;;;;;9.17;7.90;;;11.80;1.00;;;;;;5048035;28;20284;-57
2023/02/17 08:59:39;;;;;;;9.63;8.53;;;11.90;1.00;;;;;;5050761;28;20189;-58
2023/02/17 09:02:05;;;;;;;9.10;8.20;;;12.00;1.00;;;;;;5048084;28;20366;-58
2023/02/17 09:04:30;;;;;;;9.30;8.33;;;12.10;1.00;;;;;;5050405;28;20191;-59
2023/02/17 09:06:57;;;;;;;7.00;6.17;;;12.10;1.00;;;;;;5058064;28;20433;-58
2023/02/17 09:09:27;;;;;;;13.73;7.90;;;12.10;1.00;;;;;;5070795;28;20206;-58
2023/02/17 09:11:54;;;;;;;8.00;7.20;;;12.10;1.00;;;;;;5057299;28;20443;-58
2023/02/17 09:14:24;;;;;;;7.80;7.00;;;12.20;1.00;;;;;;5050285;28;20498;-58
2023/02/17 09:16:50;;;;;;;12.93;7.50;;;12.20;1.00;;;;;;5050283;28;20478;-59
2023/02/17 09:19:17;;;;;;;9.80;8.20;;;12.20;1.00;;;;;;5045989;28;20964;-59
2023/02/17 09:21:42;;;;;;;7.53;6.53;;;12.20;1.00;;;;;;5048155;28;20478;-59
2023/02/17 09:24:08;;;;;;;6.80;6.10;;;12.20;1.00;;;;;;5048316;28;20817;-58
2023/02/17 09:26:34;;;;;;;8.00;6.70;;;12.40;1.00;;;;;;5048254;28;20764;-58
2023/02/17 09:29:02;;;;;;;6.33;5.50;;;12.50;1.00;;;;;;5053305;28;20181;-59
2023/02/17 09:31:29;;;;;;;7.47;6.70;;;12.50;1.00;;;;;;5046592;28;20455;-58
2023/02/17 09:33:54;;;;;;;8.40;6.23;;;12.60;1.00;;;;;;5048467;28;20784;-58
2023/02/17 09:36:23;;;;;;;8.30;5.60;;;12.60;1.00;;;;;;5046817;28;20508;-58
2023/02/17 09:38:49;;;;;;;5.03;4.63;;;12.60;1.00;;;;;;5049999;28;20204;-57
2023/02/17 09:41:36;;;;;;;6.60;5.83;;;12.50;1.00;;;;;;5047243;28;20450;-58
2023/02/17 09:44:06;;;;;;;6.03;5.10;;;12.60;1.00;;;;;;5049838;28;20409;-58
2023/02/17 09:46:34;;;;;;;5.90;5.30;;;12.80;1.00;;;;;;5046691;28;20581;-58
2023/02/17 09:49:07;;;;;;;6.20;5.27;;;12.80;1.00;;;;;;5050106;28;20576;-58
2023/02/17 09:51:58;;;;;;;6.87;4.57;;;12.90;1.00;;;;;;5047087;28;20486;-59
2023/02/17 09:54:36;;;;;;;4.70;4.00;;;13.00;1.00;;;;;;5049256;28;20996;-58
2023/02/17 09:57:05;;;;;;;4.90;4.40;;;13.10;1.00;;;;;;5048685;28;20465;-58
2023/02/17 09:59:54;;;;;;;5.70;4.23;;;13.20;1.00;;;;;;5049057;28;20413;-57
2023/02/17 10:02:38;;;;;;;4.30;3.90;;;13.20;1.00;;;;;;5047547;28;20406;-58
2023/02/17 10:05:08;;;;;;;4.40;3.77;;;13.40;1.00;;;;;;5045942;28;20425;-60
2023/02/17 10:07:49;;;;;;;5.13;4.07;;;13.30;1.00;;;;;;5047997;28;20439;-57
2023/02/17 10:10:21;;;;;;;4.67;4.27;;;13.30;1.00;;;;;;5048572;28;20449;-56
2023/02/17 10:12:52;;;;;;;4.77;4.27;;;13.20;1.00;;;;;;5046207;28;20441;-57
2023/02/17 10:15:25;;;;;;;4.47;3.77;;;13.10;1.00;;;;;;5045401;28;20414;-58
2023/02/17 10:18:15;;;;;;;5.83;4.20;;;13.10;1.00;;;;;;5046177;28;20856;-59
2023/02/17 10:20:48;;;;;;;4.30;3.90;;;13.10;1.00;;;;;;5053319;28;20418;-57
2023/02/17 10:23:25;;;;;;;6.87;4.50;;;13.00;1.00;;;;;;5047552;28;21400;-57
2023/02/17 10:26:12;;;;;;;4.80;3.80;;;13.00;1.00;;;;;;5048746;28;20519;-56
2023/02/17 10:29:02;;;;;;;5.40;4.17;;;12.80;1.00;;;;;;5048834;28;20844;-59
2023/02/17 10:31:44;;;;;;;7.00;4.73;;;12.80;1.00;;;;;;5049248;28;20484;-57
2023/02/17 10:34:28;;;;;;;3.60;3.30;;;13.00;1.00;;;;;;5049179;28;20945;-57
2023/02/17 10:37:01;;;;;;;4.80;4.30;;;13.20;1.00;;;;;;5046798;28;20482;-57
2023/02/17 10:39:32;;;;;;;4.10;3.67;;;13.30;1.00;;;;;;5048881;28;20910;-59
2023/02/17 10:41:59;;;;;;;4.30;3.90;;;13.50;1.00;;;;;;5048789;28;20786;-58
2023/02/17 10:44:24;;;;;;;4.13;3.83;;;13.70;1.00;;;;;;5046805;28;20438;-58
2023/02/17 10:46:52;;;;;;;4.27;3.43;;;13.80;1.00;;;;;;5047427;28;20793;-58
2023/02/17 10:49:30;;;;;;;4.50;3.60;;;14.00;1.00;;;;;;5048755;28;20624;-59
2023/02/17 10:52:12;;;;;;;5.03;4.10;;;14.10;1.00;;;;;;5048517;28;20420;-59
2023/02/17 10:54:59;;;;;;;4.30;3.90;;;14.20;1.00;;;;;;5049234;28;20449;-57
2023/02/17 10:57:31;;;;;;;4.50;3.30;;;14.20;1.00;;;;;;5061023;28;20488;-59
2023/02/17 10:59:57;;;;;;;3.80;3.40;;;14.20;1.00;;;;;;5061110;28;20450;-58
2023/02/17 11:02:40;;;;;;;4.47;4.07;;;14.10;1.00;;;;;;5062426;28;20916;-58
2023/02/17 11:05:06;;;;;;;4.63;3.87;;;14.00;1.00;;;;;;5072064;28;20911;-58
2023/02/17 11:07:36;;;;;;;8.93;4.00;;;13.80;1.00;;;;;;5071618;28;20400;-56
2023/02/17 11:10:18;;;;;;;3.73;3.40;;;13.80;1.00;;;;;;5051831;28;20847;-58
2023/02/17 11:12:44;;;;;;;4.13;3.40;;;13.70;1.00;;;;;;5059956;28;20461;-56
2023/02/17 11:15:19;;;;;;;4.40;3.60;;;13.90;1.00;;;;;;5058646;28;20488;-56
2023/02/17 11:17:45;;;;;;;4.20;3.80;;;13.70;1.00;;;;;;5051781;28;20182;-58
2023/02/17 11:20:14;;;;;;;4.43;3.73;;;13.80;1.00;;;;;;5070654;28;20453;-58
2023/02/17 11:22:46;;;;;;;4.43;3.60;;;13.70;1.00;;;;;;5071595;28;20430;-57
2023/02/17 11:25:30;;;;;;;3.80;3.40;;;13.60;1.00;;;;;;5068556;28;20468;-56
2023/02/17 11:27:59;;;;;;;4.63;3.57;;;13.50;1.00;;;;;;5064838;28;20417;-56
2023/02/17 11:30:26;;;;;;;5.63;3.23;;;13.50;1.00;;;;;;5054171;28;20430;-57
2023/02/17 11:32:54;;;;;;;4.37;3.07;;;13.50;1.00;;;;;;5055886;28;20459;-58
2023/02/17 11:35:45;;;;;;;3.67;3.37;;;13.40;1.00;;;;;;5055836;28;20801;-58
2023/02/17 11:38:10;;;;;;;3.90;3.50;;;13.40;1.00;;;;;;5049969;28;20462;-58
2023/02/17 11:40:36;;;;;;;3.40;2.90;;;13.60;1.00;;;;;;5068946;28;20525;-56
2023/02/17 11:43:03;;;;;;;3.63;3.33;;;13.60;1.00;;;;;;5075745;28;20191;-57
2023/02/17 11:46:01;;;;;;;5.87;4.17;;;13.60;1.00;;;;;;5059438;28;20195;-60
2023/02/17 11:48:33;;;;;;;4.20;3.80;;;13.60;1.00;;;;;;5056149;28;20792;-57
2023/02/17 11:51:21;;;;;;;3.00;2.80;;;13.50;1.00;;;;;;5056207;28;20763;-56
2023/02/17 11:54:19;;;;;;;3.67;2.70;;;13.50;1.00;;;;;;5055588;28;20838;-56
2023/02/17 11:57:27;;;;;;;3.53;3.23;;;13.60;1.00;;;;;;5061692;28;20483;-57
2023/02/17 12:00:09;;;;;;;2.90;2.70;;;13.70;1.00;;;;;;5059669;28;20435;-58
2023/02/17 12:02:46;;;;;;;3.50;3.03;;;13.80;1.00;;;;;;5062695;28;20411;-57
2023/02/17 12:05:15;;;;;;;3.93;2.87;;;13.90;1.00;;;;;;5075923;28;20429;-57
2023/02/17 12:07:58;;;;;;;3.57;2.80;;;13.90;1.00;;;;;;5075546;28;20412;-57
2023/02/17 12:11:01;;;;;;;3.97;2.80;;;13.90;1.00;;;;;;5075691;28;20421;-57
2023/02/17 12:13:57;;;;;;;3.40;3.10;;;13.80;1.00;;;;;;5075425;28;20447;-56
2023/02/17 12:16:48;;;;;;;4.30;2.80;;;13.80;1.00;;;;;;5068695;28;20426;-57
2023/02/17 12:19:52;;;;;;;3.17;2.87;;;13.80;1.00;;;;;;5075494;28;20413;-57
2023/02/17 12:22:34;;;;;;;2.70;2.50;;;13.90;1.00;;;;;;5033320;28;20431;-57
2023/02/17 12:25:16;;;;;;;3.10;2.63;;;13.80;1.00;;;;;;5033801;28;20514;-59
2023/02/17 12:27:45;;;;;;;6.20;3.00;;;14.00;1.00;;;;;;5062254;28;20984;-56
2023/02/17 12:30:20;;;;;;;3.33;3.03;;;14.10;1.00;;;;;;5075290;28;20392;-58
2023/02/17 12:33:09;;;;;;;3.07;2.87;;;14.20;1.00;;;;;;5075164;28;20460;-57
2023/02/17 12:36:07;;;;;;;3.37;3.07;;;14.20;1.00;;;;;;5065030;28;20922;-58
2023/02/17 12:38:38;;;;;;;2.83;2.53;;;14.30;1.00;;;;;;5041020;28;20443;-58
2023/02/17 12:41:13;;;;;;;3.90;2.83;;;14.30;1.00;;;;;;5054208;28;20423;-58
2023/02/17 12:43:44;;;;;;;3.27;3.00;;;14.50;1.00;;;;;;5054709;28;20450;-56
2023/02/17 12:46:14;;;;;;;2.83;2.50;;;14.40;1.00;;;;;;5055207;28;20432;-57
2023/02/17 12:49:13;;;;;;;3.00;2.80;;;14.50;1.00;;;;;;5055358;28;20909;-57
2023/02/17 12:51:42;;;;;;;3.57;3.03;;;14.40;1.00;;;;;;5055055;28;20405;-57
2023/02/17 12:54:24;;;;;;;2.73;2.53;;;14.40;1.00;;;;;;5054714;28;20508;-57
2023/02/17 12:57:11;;;;;;;2.97;2.50;;;14.30;1.00;;;;;;5055099;28;20445;-58
2023/02/17 12:59:40;;;;;;;5.20;2.83;;;14.30;1.00;;;;;;5055146;28;20933;-58
2023/02/17 13:02:13;;;;;;;4.10;3.43;;;14.50;1.00;;;;;;5055078;28;20435;-58
2023/02/17 13:04:42;;;;;;;3.47;2.90;;;14.50;1.00;;;;;;5061335;28;20430;-59
2023/02/17 13:07:20;;;;;;;3.40;3.00;;;14.60;1.00;;;;;;5074808;28;20807;-55
2023/02/17 13:09:48;;;;;;;3.47;3.17;;;14.60;1.00;;;;;;5066930;28;20437;-56